TOURFACTS.DK  
Stats and Facts from Tour de France.

Tour de France 2018 starts in 258 days
  Riders   Stages   Teams   Summits   Yearly  


 
Search by year

 2017 - St. 21:  14824 starters.
  5131 different riders.
  634 teams.
  2232 stages.
  454 restdays.
  439589.60 km.
  5653 abandonnees.


Top 3
Christopher Froome86:20:55
Rigoberto Uran86:21:49
Romain Bardet86:23:15
Warren Barguil169 pt.
Primoz Roglic80 pt.
Thomas De Gendt64 pt.
Michael Matthews359 pt.
André Greipel234 pt.
Edvald Boasson Hagen220 pt.
Simon Yates86:27:09
Louis Meintjes86:29:15
Emanuel Buchmann86:54:16
Facts from Tour de France 2017
  |   Stages.  |   Stage winners.  |   Days in yellow  |   Average speed.  |   Route.  |   Teams.  |   All riders.  |   Rookies.  |   Withdrawls.  |  

  |   GC.  |   Polka  |   Green  |   White  |   Summits. (In tour)  |   Summits. (Points)  |   Miscellaneous.  |  

Stage 9 on 09 - 07 - 2017
         Owning:    Christopher Froome      Warren Barguil      Marcel Kittel      Simon Yates  

Pick a stage:  1 2 3 4 5 6 7 8 9 10 11 12 13 14 15 16 17 18 19 20 21
  NantuaChambéry | Dist: 181.50 km.
Cat: 2Côte des NeyrollesFRAThibaut Pinot
5 points
 
Cat: 3Col de BérentinFRAThibaut Pinot
2 points
 
Cat: 3Côte de FranclensBELThomas De Gendt
2 points
 
Cat: HCol de la BicheSLOPrimoz Roglic
20 points
 
Cat: HCol du Grand ColombierFRAWarren Barguil
20 points
 
Cat: 4Côte de JongieuxBELJan Bakelants
1 point
 
Cat: HMont du ChatFRAWarren Barguil
20 points
 

Average speed for all riders in stage:  32,659 km./hr.
    Place:Name:Team:Time:Km/h:
COLRigoberto UranUSACannondale-Drapac Pro Cycling ..05:07:22  +  00:00:00=35,430 
FRAWarren BarguilDEUTeam Sunweb05:07:22  +  00:00:00=35,430 
KENChristopher FroomeGBRSky Procycling05:07:22  +  00:00:00=35,430 
4 FRARomain BardetFRAAg2r La Mondiale05:07:22  +  00:00:00=35,430 
5 ITAFabio AruKAZAstana Pro Team05:07:22  +  00:00:00=35,430 
6 SUIJakob FuglsangKAZAstana Pro Team05:07:22  +  00:00:00=35,430 
7 NZLGeorge BennettNLDTeam Lotto NL - Jumbo05:08:37  +  00:01:15=35,286 
8 ESPMikel Landa MeanaGBRSky Procycling05:08:37  +  00:01:15=35,286 
9 ENGDaniel MartinBELQuick-Step Floors05:08:37  +  00:01:15=35,286 
10 COLNairo QuintanaESPMovistar Team05:08:37  +  00:01:15=35,286 
11 ENGSimon YatesAUSOrica - Scott05:08:37  +  00:01:15=35,286 
12 BELTiesj BenootBELLotto Soudal05:10:54  +  00:03:32=35,027 
13 ESPMikel NieveGBRSky Procycling05:10:54  +  00:03:32=35,027 
14 RSALouis MeintjesUAEUAE Team Emirates05:10:54  +  00:03:32=35,027 
15 FRAPierre-Roger LatourFRAAg2r La Mondiale05:11:41  +  00:04:19=34,939 
16 FRAAlexis VuillermozFRAAg2r La Mondiale05:11:41  +  00:04:19=34,939 
17 COLSergio Luis HenaoGBRSky Procycling05:11:41  +  00:04:19=34,939 
18 ITADamiano CarusoUSABMC Racing Team05:11:41  +  00:04:19=34,939 
19 SLOPrimoz RoglicNLDTeam Lotto NL - Jumbo05:11:41  +  00:04:19=34,939 
20 ESPAlberto ContadorUSATrek – Segafredo05:11:41  +  00:04:19=34,939 
21 NEDBauke MollemaUSATrek – Segafredo05:12:12  +  00:04:50=34,881 
22 BELJan BakelantsFRAAg2r La Mondiale05:13:39  +  00:06:17=34,720 
23 ESPDaniel NavarroFRACofidis – Solutions Crédits05:13:39  +  00:06:17=34,720 
24 GEREmanuel BuchmannDEUBora–Hansgrohe05:14:35  +  00:07:13=34,617 
25 COLCarlos Alberto BetancurESPMovistar Team05:14:35  +  00:07:13=34,617 
26 FRABrice FeilluFRAFortuneo - Vital Concept05:15:29  +  00:08:07=34,518 
27 FRATony GallopinBELLotto Soudal05:15:29  +  00:08:07=34,518 
28 COLJarlinson Pantano GomezUSATrek – Segafredo05:15:29  +  00:08:07=34,518 
29 GERGianluca BrambillaBELQuick-Step Floors05:20:18  +  00:12:56=33,999 
30 FRAGuillaume MartinBELWanty – Groupe Gobert05:20:18  +  00:12:56=33,999 
31 LUXBen GastauerFRAAg2r La Mondiale05:21:41  +  00:14:19=33,853 
32 GERSimon GeschkeDEUTeam Sunweb05:21:41  +  00:14:19=33,853 
33 FRASylvain ChavanelFRADirect Energie05:21:41  +  00:14:19=33,853 
34 CZERoman KreuzigerAUSOrica - Scott05:25:43  +  00:18:21=33,434 
35 FRANicolas EdetFRACofidis – Solutions Crédits05:25:43  +  00:18:21=33,434 
36 FRAPierre RollandUSACannondale-Drapac Pro Cycling ..05:25:43  +  00:18:21=33,434 
37 FRAAxel DomontFRAAg2r La Mondiale05:25:43  +  00:18:21=33,434 
38 NEDLaurens ten DamDEUTeam Sunweb05:29:15  +  00:21:53=33,075 
39 FRAAmaël MoinardUSABMC Racing Team05:32:26  +  00:25:04=32,758 
40 NEDDylan Van BaarleUSACannondale-Drapac Pro Cycling ..05:32:26  +  00:25:04=32,758 
41 KAZBakhtiyar KozhatayevKAZAstana Pro Team05:32:26  +  00:25:04=32,758 
42 ITAAlessandro De MarchiUSABMC Racing Team05:32:26  +  00:25:04=32,758 
43 SLOJanez BrajkovicBHRBahrain-Merida05:33:29  +  00:26:07=32,655 
44 HRVKristijan DurasekUAEUAE Team Emirates05:33:29  +  00:26:07=32,655 
45 KAZAndrey ZeitsKAZAstana Pro Team05:33:29  +  00:26:07=32,655 
46 DENLars BakBELLotto Soudal05:34:32  +  00:27:10=32,553 
47 FRAYoann OffredoBELWanty – Groupe Gobert05:34:32  +  00:27:10=32,553 
48 BELPhilippe GilbertBELQuick-Step Floors05:34:32  +  00:27:10=32,553 
49 BELThomas De GendtBELLotto Soudal05:34:32  +  00:27:10=32,553 
50 BELSerge PauwelsZAFDimension Data05:34:32  +  00:27:10=32,553 
51 ESPJonathan CastroviejoESPMovistar Team05:34:32  +  00:27:10=32,553 
52 SUIMathias FrankFRAAg2r La Mondiale05:34:32  +  00:27:10=32,553 
53 GERPaul MartensNLDTeam Lotto NL - Jumbo05:34:32  +  00:27:10=32,553 
54 NEDMarco MinnaardBELWanty – Groupe Gobert05:34:32  +  00:27:10=32,553 
55 NORVegard Stake LaengenUAEUAE Team Emirates05:34:32  +  00:27:10=32,553 
56 FRAThomas VoecklerFRADirect Energie05:34:32  +  00:27:10=32,553 
57 BELGreg Van AvermaetUSABMC Racing Team05:34:32  +  00:27:10=32,553 
58 CZEZdenek StybarBELQuick-Step Floors05:34:32  +  00:27:10=32,553 
59 BELOliver NaesenFRAAg2r La Mondiale05:34:32  +  00:27:10=32,553 
60 ESPLuis Angel MateFRACofidis – Solutions Crédits05:34:32  +  00:27:10=32,553 
61 FRAElie GesbertFRAFortuneo - Vital Concept05:34:32  +  00:27:10=32,553 
62 FRAPierre-Luc PérichonFRAFortuneo - Vital Concept05:34:32  +  00:27:10=32,553 
63 FRANicolas RocheUSABMC Racing Team05:34:32  +  00:27:10=32,553 
64 DENMichael ValgrenKAZAstana Pro Team05:34:32  +  00:27:10=32,553 
65 ITADiego UlissiUAEUAE Team Emirates05:34:32  +  00:27:10=32,553 
66 BELPieter VanspeybrouckBELWanty – Groupe Gobert05:34:32  +  00:27:10=32,553 
67 BELJens KeukeleireAUSOrica - Scott05:34:32  +  00:27:10=32,553 
68 AUSAdam HansenBELLotto Soudal05:34:32  +  00:27:10=32,553 
69 CZEOndrej CinkBHRBahrain-Merida05:34:32  +  00:27:10=32,553 
70 FRAThibaut PinotFRAFDJ05:34:32  +  00:27:10=32,553 
71 GERTony MartinCHETeam Katusha - Alpecin05:34:32  +  00:27:10=32,553 
72 FRAArthur VichotFRAFDJ05:34:32  +  00:27:10=32,553 
73 SUIDanilo WyssUSABMC Racing Team05:34:32  +  00:27:10=32,553 
74 GERNils PolittCHETeam Katusha - Alpecin05:34:32  +  00:27:10=32,553 
75 AUSSimon ClarkeUSACannondale-Drapac Pro Cycling ..05:34:32  +  00:27:10=32,553 
76 NEDKoen De KortUSATrek – Segafredo05:34:32  +  00:27:10=32,553 
77 ESPHaimar ZubeldiaUSATrek – Segafredo05:34:32  +  00:27:10=32,553 
78 SUIMichael SchärUSABMC Racing Team05:34:32  +  00:27:10=32,553 
79 FRAPerrig QuemeneurFRADirect Energie05:34:32  +  00:27:10=32,553 
80 CRCAndrey AmadorESPMovistar Team05:34:32  +  00:27:10=32,553 
81 BELThomas DegandBELWanty – Groupe Gobert05:34:32  +  00:27:10=32,553 
82 FRACyril GautierFRAAg2r La Mondiale05:34:32  +  00:27:10=32,553 
83 ITAAndrea PasqualonBELWanty – Groupe Gobert05:34:32  +  00:27:10=32,553 
84 FRAMaxime BouetFRAFortuneo - Vital Concept05:34:32  +  00:27:10=32,553 
85 FRAJulien SimonFRACofidis – Solutions Crédits05:34:32  +  00:27:10=32,553 
86 NZLPaddy BevinUSACannondale-Drapac Pro Cycling ..05:34:32  +  00:27:10=32,553 
87 RSADaryl ImpeyAUSOrica - Scott05:34:32  +  00:27:10=32,553 
88 ITAMarco MarcatoUAEUAE Team Emirates05:34:32  +  00:27:10=32,553 
89 ITADario CataldoKAZAstana Pro Team05:34:32  +  00:27:10=32,553 
90 PORTiago PintoCHETeam Katusha - Alpecin05:34:32  +  00:27:10=32,553 
91 ITAMatteo BonoUAEUAE Team Emirates05:34:32  +  00:27:10=32,553 
92 BELFrederik BackaertBELWanty – Groupe Gobert05:34:32  +  00:27:10=32,553 
93 FRARomain SicardFRADirect Energie05:34:32  +  00:27:10=32,553 
94 FRARomain HardyFRAFortuneo - Vital Concept05:34:32  +  00:27:10=32,553 
95 FRARudy MolardFRAFDJ05:34:32  +  00:27:10=32,553 
96 HRVRobert KiserlovskiCHETeam Katusha - Alpecin05:34:32  +  00:27:10=32,553 
97 JPNYukiya ArashiroBHRBahrain-Merida05:34:32  +  00:27:10=32,553 
98 ARGEduardo SepulvedaFRAFortuneo - Vital Concept05:34:32  +  00:27:10=32,553 
99 ENGScott ThwaitesZAFDimension Data05:34:32  +  00:27:10=32,553 
100 AUSMichael MatthewsDEUTeam Sunweb05:34:32  +  00:27:10=32,553 
101 NOREdvald Boasson HagenZAFDimension Data05:34:32  +  00:27:10=32,553 
102 POLPawel PoljanskiDEUBora–Hansgrohe05:34:32  +  00:27:10=32,553 
103 USAAndrew TalanskyUSACannondale-Drapac Pro Cycling ..05:34:32  +  00:27:10=32,553 
104 USANathan BrownUSACannondale-Drapac Pro Cycling ..05:34:32  +  00:27:10=32,553 
105 NEDMaurits LammertinkCHETeam Katusha - Alpecin05:34:32  +  00:27:10=32,553 
106 ESPJavier Moreno BazánBHRBahrain-Merida05:34:32  +  00:27:10=32,553 
107 ESPImanol ErvitiESPMovistar Team05:34:32  +  00:27:10=32,553 
108 FRAOlivier Le GacFRAFDJ05:34:32  +  00:27:10=32,553 
109 COLDarwin AtapumaUAEUAE Team Emirates05:34:32  +  00:27:10=32,553 
110 FRAFlorian VachonFRAFortuneo - Vital Concept05:34:32  +  00:27:10=32,553 
111 AUSDamien HowsonAUSOrica - Scott05:34:32  +  00:27:10=32,553 
112 UKRAndriy GrivkoKAZAstana Pro Team05:36:37  +  00:29:15=32,351 
113 NEDTimo RoosenNLDTeam Lotto NL - Jumbo05:36:37  +  00:29:15=32,351 
114 NZLDion SmithBELWanty – Groupe Gobert05:36:37  +  00:29:15=32,351 
115 NZLJack BauerBELQuick-Step Floors05:36:37  +  00:29:15=32,351 
116 SUIStefan KüngUSABMC Racing Team05:36:37  +  00:29:15=32,351 
117 SUIMichael AlbasiniAUSOrica - Scott05:36:37  +  00:29:15=32,351 
118 ITAAlberto BettiolUSACannondale-Drapac Pro Cycling ..05:36:37  +  00:29:15=32,351 
119 COLJohan Esteban ChavesAUSOrica - Scott05:36:37  +  00:29:15=32,351 
120 FRAAngelo TulikFRADirect Energie05:38:45  +  00:31:23=32,148 
121 FRALilian CalmejaneFRADirect Energie05:38:45  +  00:31:23=32,148 
122 BELGuillaume Van KeirsbulckBELWanty – Groupe Gobert05:38:45  +  00:31:23=32,148 
123 SUIReto HollensteinCHETeam Katusha - Alpecin05:38:45  +  00:31:23=32,148 
124 NEDRoy CurversDEUTeam Sunweb05:40:34  +  00:33:12=31,976 
125 AUTMarco HallerCHETeam Katusha - Alpecin05:40:34  +  00:33:12=31,976 
126 NEDAlbert TimmerDEUTeam Sunweb05:40:34  +  00:33:12=31,976 
127 ESPMarkel IrizarUSATrek – Segafredo05:40:34  +  00:33:12=31,976 
128 AUTMichael GoglUSATrek – Segafredo05:40:34  +  00:33:12=31,976 
129 GERJasha SütterlinESPMovistar Team05:40:34  +  00:33:12=31,976 
130 ITADaniele BennatiESPMovistar Team05:40:34  +  00:33:12=31,976 
131 BELTim WellensBELLotto Soudal05:40:34  +  00:33:12=31,976 
132 GERNikias ArndtDEUTeam Sunweb05:40:34  +  00:33:12=31,976 
133 KAZDmitriy GruzdevKAZAstana Pro Team05:43:15  +  00:35:53=31,726 
134 ETHTsgabu Gebremaryan GrmayBHRBahrain-Merida05:43:15  +  00:35:53=31,726 
135 BLRVasil KiryienkaGBRSky Procycling05:43:33  +  00:36:11=31,698 
136 POLMichal KwiatkowskiGBRSky Procycling05:43:43  +  00:36:21=31,683 
137 POLRafal MajkaDEUBora–Hansgrohe05:43:43  +  00:36:21=31,683 
138 ENGStephen CummingsZAFDimension Data05:44:48  +  00:37:26=31,584 
139 WALLuke RoweGBRSky Procycling05:44:48  +  00:37:26=31,584 
140 BELJulien VermoteBELQuick-Step Floors05:44:48  +  00:37:26=31,584 
141 FRAAdrien PetitFRADirect Energie05:44:48  +  00:37:26=31,584 
142 DDRRüdiger SeligDEUBora–Hansgrohe05:44:48  +  00:37:26=31,584 
143 FRAThomas BoudatFRADirect Energie05:44:48  +  00:37:26=31,584 
144 ITASonny ColbrelliBHRBahrain-Merida05:44:48  +  00:37:26=31,584 
145 ENGBen SwiftUAEUAE Team Emirates05:44:48  +  00:37:26=31,584 
146 AUSMathew HaymanAUSOrica - Scott05:44:48  +  00:37:26=31,584 
147 GERJohn DegenkolbUSATrek – Segafredo05:44:48  +  00:37:26=31,584 
148 FRAFlorian SénéchalFRACofidis – Solutions Crédits05:44:48  +  00:37:26=31,584 
149 GERMarcel SiebergBELLotto Soudal05:44:48  +  00:37:26=31,584 
150 FRACyril LemoineFRACofidis – Solutions Crédits05:44:48  +  00:37:26=31,584 
151 BELJürgen RoelandtsBELLotto Soudal05:44:48  +  00:37:26=31,584 
152 FRANacer BouhanniFRACofidis – Solutions Crédits05:44:48  +  00:37:26=31,584 
153 ITAFabio SabatiniBELQuick-Step Floors05:44:48  +  00:37:26=31,584 
154 GERMarcel KittelBELQuick-Step Floors05:44:48  +  00:37:26=31,584 
155 GERAndré GreipelBELLotto Soudal05:44:48  +  00:37:26=31,584 
156 AUTBernhard EiselZAFDimension Data05:44:48  +  00:37:26=31,584 
157 POLMaciej BodnarDEUBora–Hansgrohe05:44:48  +  00:37:26=31,584 
158 BELDimitri ClaeysFRACofidis – Solutions Crédits05:44:48  +  00:37:26=31,584 
159 GERMarcus BurghardtDEUBora–Hansgrohe05:44:48  +  00:37:26=31,584 
160 FRALaurent PichonFRAFortuneo - Vital Concept05:44:48  +  00:37:26=31,584 
161 NEDTom LeezerNLDTeam Lotto NL - Jumbo05:44:48  +  00:37:26=31,584 
162 RSAJaco VenterZAFDimension Data05:44:48  +  00:37:26=31,584 
163 AUSJay McCarthyDEUBora–Hansgrohe05:44:48  +  00:37:26=31,584 
164 GERChristian KneesGBRSky Procycling05:44:48  +  00:37:26=31,584 
165 GERRick ZabelCHETeam Katusha - Alpecin05:44:48  +  00:37:26=31,584 
166 SLOBorut BozicBHRBahrain-Merida05:44:48  +  00:37:26=31,584 
167 GERRobert WagnerNLDTeam Lotto NL - Jumbo05:44:48  +  00:37:26=31,584 
168 NEDRamon SinkeldamDEUTeam Sunweb05:44:48  +  00:37:26=31,584 
169 ESPJesus HerradaESPMovistar Team05:44:48  +  00:37:26=31,584 
170 NEDMike TeunissenDEUTeam Sunweb05:44:48  +  00:37:26=31,584 
171 SLOGrega BoleBHRBahrain-Merida05:44:48  +  00:37:26=31,584 
172 ITAFabio FellineUSATrek – Segafredo05:44:48  +  00:37:26=31,584 
173 RSAReinardt Janse Van RensburgZAFDimension Data05:44:48  +  00:37:26=31,584 
174 NORAlexander KristoffCHETeam Katusha - Alpecin05:44:48  +  00:37:26=31,584 
175 USATaylor PhinneyUSACannondale-Drapac Pro Cycling ..05:44:48  +  00:37:26=31,584 
176 NEDDylan GroenewegenNLDTeam Lotto NL - Jumbo05:44:48  +  00:37:26=31,584 
177 FRAChristophe LaporteFRACofidis – Solutions Crédits05:44:48  +  00:37:26=31,584 
178 ITADavide CimolaiFRAFDJ05:44:48  +  00:37:26=31,584 
179 ENGDaniel McLayFRAFortuneo - Vital Concept05:44:48  +  00:37:26=31,584 
180 FRAYohann GèneFRADirect Energie05:44:48  +  00:37:26=31,584 
181 KAZAlexey LutsenkoKAZAstana Pro Team05:45:11  +  00:37:49=31,548 

Withdrawls: 12
 
Rider
Team
Reason
9  WALGeraint ThomasGBRSky ProcyclingDid not finish
41  AUSRichie PorteUSABMC Racing TeamDid not finish
67  ITAManuele MoriUAEUAE Team EmiratesDid not finish
71  FRAArnaud DémareFRAFDJExceeded time limit
73  FRAMickael DelageFRAFDJExceeded time limit
74  ITAJacopo GuarnieriFRAFDJExceeded time limit
75  URSIgnatas KonovalovasFRAFDJExceeded time limit
97  AUSMark RenshawZAFDimension DataExceeded time limit
108  ITAMatteo TrentinBELQuick-Step FloorsExceeded time limit
118  SVKJuraj SaganDEUBora–HansgroheExceeded time limit
161  NEDRobert GesinkNLDTeam Lotto NL - JumboDid not finish
168  NEDJos Van EmdenNLDTeam Lotto NL - JumboDid not finish

Todays birthdays.

1890  Maurice Lartigue
1892  Mosé Arosio
1896  Henri Drapel
1919  Bernardo Capo
1920  Kléber Piot
1926  Victorio Garcia
1946  Lucien Van Impe
1946  Pierfranco Vianelli
1948  Jacques Boulas
1948  Yves Hézard
1962  Jan Goessens
1962  Jens Veggerby
1980  Patrik Sinkewitz
1986  Wesley Sulzberger